Decoded Metar for MDST (SANTIAGO in DOMINICAN REPUBLIC) (IATA:STI) | Meteo·Mobile Aviation Weather
aviador You're here:

MDST Decoded Metar

SANTIAGO in DOMINICAN REPUBLIC
Report Time2019-02-22 20:00:00
UTC Time2019-02-22 20:49:34
Flight Rules vfr VFR
Wind120° at 16 kt
W.Decomp.*RWY 11: 15.0 kt HW 5.5 kt RCW
W.Rank120° ranks 3
Current wind is above 120° avg. (8.8)
Visibility9999 m
Phenomena:N/A
Clouds:Scattered 024 Hf
Expected CloudBase > 4,400 ft AGL from Temp-Dew spread
CeilingNone
Temp30°C (ISA +16)
Dew Point19°C (52% RH)
Heat Index31.4°C
AAT27.5°C
QNH1018 hPa
Density Alt2,539 ft
Elevation567 ft
Report Wrong Elevation
Raw Report
MDST 222000Z 12016KT 9999 SCT024 30/19 Q1018=

Extra information for MDST:More info

Metar Taf Metar & Taf Last 4 Metars F.Rules Stats Wind Profile Meteogram Temp Stats Airport Information Weather charts Add Link Nearby VenuesMetar ALERT Operation Metar Decoded Social comments